Tobol'Sk, Russia
Current Conditions -  °F | °C
As of 2:00 PM on Friday 31 Oct 2014 (Local Time) from USTR Reporting Station
Overcast Overcast  
Wind Chill: 30°   Ceiling: 700
Heat Index: 37°   Visibility: 4mi
Dew Point: 36°   Wind: 11mph
Humidity: 93%   Direction: 190°S
Pressure: 30"   Gusts: NA
Location:  58.15°N, 68.25°E
Report Text: USTR 310900Z 19005MPS 7000 BKN007CB OVC070 03/02 Q1016 TEMPO2000 SHRA BR BKN007 RMK QFE753/1005 12290060 21350057
Loading
Personal Weather Stations






























Interactive Weather Map
Tropical Storm Tracking
New forecast layout! Learn more

10-Day Weather Forecast

Advertisements
Track Severe Weather on mobile